Time;durP1;ratioP1;P1;durP2;ratioP2;P2;SDS_P1;SDS_P2;PMS_P1;PMS_P2;Temp;Humidity;BMP_temperature;BMP_pressure;BME280_temperature;BME280_humidity;BME280_pressure;Samples;Min_cycle;Max_cycle;Signal;HPM_P1;HPM_P2
2023/01/30 00:00:00;;;;;;;13.55;12.15;;;3.80;99.90;;;;;;4942679;28;20441;-70
2023/01/30 00:02:29;;;;;;;12.88;11.57;;;3.90;99.90;;;;;;4947435;29;20441;-70
2023/01/30 00:04:55;;;;;;;13.60;12.30;;;3.90;99.90;;;;;;4947092;28;20808;-71
2023/01/30 00:07:22;;;;;;;13.90;12.40;;;4.00;99.90;;;;;;4947498;28;20433;-71
2023/01/30 00:09:49;;;;;;;12.70;11.40;;;4.00;99.90;;;;;;4949266;28;20948;-70
2023/01/30 00:12:16;;;;;;;12.38;11.18;;;4.10;99.90;;;;;;4952369;28;20436;-70
2023/01/30 00:14:42;;;;;;;13.43;12.02;;;4.20;99.90;;;;;;4965289;28;20428;-70
2023/01/30 00:17:09;;;;;;;13.63;12.23;;;4.20;99.90;;;;;;4948609;28;20533;-72
2023/01/30 00:19:37;;;;;;;13.82;11.90;;;4.20;99.90;;;;;;4965072;28;20435;-71
2023/01/30 00:22:04;;;;;;;13.83;12.43;;;4.30;99.90;;;;;;4951707;28;20513;-70
2023/01/30 00:24:31;;;;;;;12.98;11.65;;;4.30;99.90;;;;;;4947214;28;20439;-71
2023/01/30 00:26:57;;;;;;;13.48;12.07;;;4.40;99.90;;;;;;4949646;28;20423;-71
2023/01/30 00:29:24;;;;;;;14.15;12.65;;;4.40;99.90;;;;;;4950210;28;20429;-71
2023/01/30 00:31:51;;;;;;;13.10;11.70;;;4.40;99.90;;;;;;4947482;29;20449;-70
2023/01/30 00:34:17;;;;;;;12.95;11.55;;;4.40;99.90;;;;;;4949076;29;20426;-70
2023/01/30 00:36:46;;;;;;;13.57;12.18;;;4.50;99.90;;;;;;4950250;29;20437;-71
2023/01/30 00:39:12;;;;;;;13.23;11.82;;;4.50;99.90;;;;;;4947463;29;20454;-70
2023/01/30 00:47:08;;;;;;;14.20;12.70;;;4.60;99.90;;;;;;4947033;28;20971;-71
2023/01/30 00:49:36;;;;;;;13.68;12.27;;;4.60;99.90;;;;;;4949853;29;20492;-70
2023/01/30 00:52:04;;;;;;;15.27;12.88;;;4.60;99.90;;;;;;4950271;29;20796;-71
2023/01/30 00:54:32;;;;;;;15.10;13.00;;;4.60;99.90;;;;;;4939575;29;20454;-69
2023/01/30 00:56:59;;;;;;;16.73;14.15;;;4.60;99.90;;;;;;4947158;28;20450;-71
2023/01/30 00:59:25;;;;;;;15.40;13.80;;;4.60;99.90;;;;;;4949772;29;20426;-71
2023/01/30 01:01:52;;;;;;;15.95;13.13;;;4.70;99.90;;;;;;4947672;29;20433;-69
2023/01/30 01:04:19;;;;;;;15.20;13.30;;;4.60;99.90;;;;;;4948653;29;20946;-70
2023/01/30 01:06:46;;;;;;;15.25;13.55;;;4.70;99.90;;;;;;4948425;29;20445;-71
2023/01/30 01:09:14;;;;;;;15.63;13.40;;;4.70;99.90;;;;;;4947519;29;20437;-71
2023/01/30 01:11:40;;;;;;;15.00;13.45;;;4.70;99.90;;;;;;4947946;28;20452;-72
2023/01/30 01:14:07;;;;;;;15.48;13.77;;;4.70;99.90;;;;;;4947908;29;20426;-69
2023/01/30 01:16:35;;;;;;;16.63;14.20;;;4.70;99.90;;;;;;4946770;29;20954;-69
2023/01/30 01:19:02;;;;;;;15.30;13.70;;;4.70;99.90;;;;;;4948868;28;20985;-68
2023/01/30 01:21:29;;;;;;;15.15;13.60;;;4.70;99.90;;;;;;4947983;28;20936;-70
2023/01/30 01:23:58;;;;;;;15.87;14.30;;;4.70;99.90;;;;;;4939152;29;20474;-70
2023/01/30 01:26:27;;;;;;;15.63;14.00;;;4.70;99.90;;;;;;4948817;28;20449;-72
2023/01/30 01:28:55;;;;;;;14.98;13.48;;;4.80;99.90;;;;;;4950261;29;20421;-70
2023/01/30 01:31:22;;;;;;;16.17;14.45;;;4.80;99.90;;;;;;4951332;29;20441;-70
2023/01/30 01:33:49;;;;;;;14.93;13.32;;;4.80;99.90;;;;;;4951207;29;20438;-71
2023/01/30 01:36:16;;;;;;;16.13;14.43;;;4.80;99.90;;;;;;4947637;28;20469;-70
2023/01/30 01:38:43;;;;;;;14.60;13.15;;;4.80;99.90;;;;;;4947744;28;20447;-71
2023/01/30 01:41:10;;;;;;;15.20;13.70;;;4.80;99.90;;;;;;4944469;28;20457;-70
2023/01/30 01:43:59;;;;;;;15.35;13.85;;;4.80;99.90;;;;;;4948621;29;20440;-71
2023/01/30 01:46:28;;;;;;;15.07;13.57;;;4.80;99.90;;;;;;4940865;28;20980;-72
2023/01/30 01:48:58;;;;;;;14.63;13.13;;;4.80;99.90;;;;;;4948674;29;20943;-69
2023/01/30 01:51:29;;;;;;;15.40;13.80;;;4.80;99.90;;;;;;4948476;29;20432;-69
2023/01/30 01:53:59;;;;;;;15.95;13.65;;;4.80;99.90;;;;;;4943875;29;20477;-70
2023/01/30 01:56:27;;;;;;;15.37;13.77;;;4.80;99.90;;;;;;4966394;23;20443;-71
2023/01/30 01:58:58;;;;;;;15.38;13.82;;;4.90;99.90;;;;;;4974461;28;20438;-74
2023/01/30 02:01:25;;;;;;;15.65;13.95;;;4.90;99.90;;;;;;4986099;28;20422;-74
2023/01/30 02:03:56;;;;;;;15.30;13.70;;;4.90;99.90;;;;;;4986826;28;20533;-72
2023/01/30 02:06:23;;;;;;;15.00;13.43;;;4.90;99.90;;;;;;4980959;28;20416;-72
2023/01/30 02:08:54;;;;;;;14.60;12.68;;;4.90;99.90;;;;;;4966909;28;20841;-74
2023/01/30 02:11:26;;;;;;;15.32;13.73;;;4.90;99.90;;;;;;4967877;28;20434;-73
2023/01/30 02:13:55;;;;;;;15.80;13.90;;;4.90;99.90;;;;;;4967799;28;20513;-73
2023/01/30 02:16:22;;;;;;;17.08;14.30;;;4.90;99.90;;;;;;4965762;28;20491;-74
2023/01/30 02:18:49;;;;;;;14.55;13.07;;;4.90;99.90;;;;;;4967609;28;20836;-72
2023/01/30 02:22:01;;;;;;;15.93;14.23;;;4.80;99.90;;;;;;4966092;28;20431;-74
2023/01/30 02:25:06;;;;;;;14.55;12.98;;;4.80;99.90;;;;;;4965649;28;20538;-72
2023/01/30 02:28:03;;;;;;;15.30;13.70;;;4.80;99.90;;;;;;4959913;28;20433;-73
2023/01/30 02:31:05;;;;;;;16.38;13.73;;;4.80;99.90;;;;;;4979761;28;20428;-72
2023/01/30 02:33:40;;;;;;;15.18;13.68;;;4.80;99.90;;;;;;4936052;28;20510;-72
2023/01/30 02:36:16;;;;;;;15.30;13.15;;;4.80;99.90;;;;;;4983527;28;20440;-74
2023/01/30 02:38:52;;;;;;;15.00;13.00;;;4.80;99.90;;;;;;4971642;28;20438;-72
2023/01/30 02:41:26;;;;;;;15.77;14.15;;;4.80;99.90;;;;;;4965503;28;20507;-74
2023/01/30 02:44:03;;;;;;;15.85;14.20;;;4.80;99.90;;;;;;4971061;28;20416;-72
2023/01/30 02:46:37;;;;;;;15.25;13.65;;;4.80;99.90;;;;;;4971684;28;20918;-73
2023/01/30 02:49:08;;;;;;;14.43;12.98;;;4.80;99.90;;;;;;4974035;28;20416;-72
2023/01/30 02:51:37;;;;;;;15.25;13.65;;;4.70;99.90;;;;;;4972800;28;20436;-72
2023/01/30 02:54:07;;;;;;;16.98;13.52;;;4.70;99.90;;;;;;4971762;28;20430;-72
2023/01/30 02:56:45;;;;;;;15.18;13.50;;;4.70;99.90;;;;;;4972795;28;20455;-73
2023/01/30 02:59:14;;;;;;;14.80;13.20;;;4.70;99.90;;;;;;4969532;28;20452;-74
2023/01/30 03:02:19;;;;;;;15.70;14.00;;;4.70;99.90;;;;;;4969965;28;20428;-74
2023/01/30 03:05:01;;;;;;;16.05;14.35;;;4.70;99.90;;;;;;4971124;28;20442;-73
2023/01/30 03:07:43;;;;;;;17.43;14.07;;;4.70;99.90;;;;;;4965799;28;20489;-73
2023/01/30 03:10:18;;;;;;;15.80;14.20;;;4.70;99.90;;;;;;4969233;28;20442;-74
2023/01/30 03:12:50;;;;;;;16.88;13.98;;;4.70;99.90;;;;;;4969848;28;20413;-72
2023/01/30 03:15:23;;;;;;;15.85;14.15;;;4.70;99.90;;;;;;4980108;28;20443;-72
2023/01/30 03:17:52;;;;;;;16.80;15.00;;;4.70;99.90;;;;;;4984386;28;20443;-73
2023/01/30 03:20:20;;;;;;;17.25;15.13;;;4.70;99.90;;;;;;4977698;28;20771;-74
2023/01/30 03:22:47;;;;;;;17.05;14.38;;;4.70;99.90;;;;;;4968481;28;20463;-73
2023/01/30 03:25:19;;;;;;;16.23;14.60;;;4.70;99.90;;;;;;4969597;28;20446;-73
2023/01/30 03:27:47;;;;;;;16.77;14.98;;;4.70;99.90;;;;;;4970283;28;20447;-72
2023/01/30 03:30:14;;;;;;;16.38;14.68;;;4.80;99.90;;;;;;4970376;28;20420;-72
2023/01/30 03:32:41;;;;;;;16.00;14.30;;;4.80;99.90;;;;;;4969616;28;20424;-73
2023/01/30 03:35:09;;;;;;;16.90;14.30;;;4.80;99.90;;;;;;4969654;28;20491;-73
2023/01/30 03:37:36;;;;;;;17.00;14.57;;;4.80;99.90;;;;;;4959428;28;20892;-72
2023/01/30 03:40:03;;;;;;;16.58;14.52;;;4.80;99.90;;;;;;4977346;28;20451;-73
2023/01/30 03:42:31;;;;;;;16.75;14.02;;;4.90;99.90;;;;;;4986898;28;20423;-72
2023/01/30 03:44:58;;;;;;;15.05;13.55;;;4.90;99.90;;;;;;4985864;28;20420;-74
2023/01/30 03:47:24;;;;;;;15.40;13.80;;;4.90;99.90;;;;;;4997942;28;20428;-73
2023/01/30 03:49:51;;;;;;;15.20;13.60;;;5.00;99.90;;;;;;4984744;28;20508;-74
2023/01/30 03:52:19;;;;;;;15.82;14.13;;;5.00;99.90;;;;;;4970944;28;20424;-73
2023/01/30 03:54:46;;;;;;;15.63;14.02;;;5.00;99.90;;;;;;4971946;28;20561;-73
2023/01/30 03:57:13;;;;;;;14.15;12.70;;;5.00;99.90;;;;;;4973136;28;20431;-73
2023/01/30 03:59:40;;;;;;;14.87;13.37;;;5.10;99.90;;;;;;4981724;28;20856;-73
2023/01/30 04:02:07;;;;;;;15.07;13.38;;;5.10;99.90;;;;;;4977351;28;20464;-73
2023/01/30 04:04:33;;;;;;;14.40;12.90;;;5.10;99.90;;;;;;4970793;28;20486;-72
2023/01/30 04:07:00;;;;;;;13.90;12.50;;;5.10;99.90;;;;;;4970386;28;20424;-72
2023/01/30 04:09:28;;;;;;;13.40;12.00;;;5.10;99.90;;;;;;4969223;28;20436;-73
2023/01/30 04:11:55;;;;;;;13.57;12.27;;;5.10;99.90;;;;;;4971400;28;20439;-74
2023/01/30 04:14:22;;;;;;;12.63;11.30;;;5.10;99.90;;;;;;4970404;28;20438;-72
2023/01/30 04:16:49;;;;;;;13.68;12.05;;;5.10;99.90;;;;;;4968056;28;20420;-73
2023/01/30 04:19:15;;;;;;;13.85;12.45;;;5.10;99.90;;;;;;4970108;28;21051;-73
2023/01/30 04:21:42;;;;;;;13.65;12.25;;;5.10;99.90;;;;;;4972069;28;20424;-73
2023/01/30 04:24:09;;;;;;;12.50;11.30;;;5.10;99.90;;;;;;4969875;28;20819;-73
2023/01/30 04:26:37;;;;;;;12.70;11.40;;;5.20;99.90;;;;;;4969264;28;20431;-72
2023/01/30 04:29:04;;;;;;;13.07;11.75;;;5.20;99.90;;;;;;4970053;28;20424;-73
2023/01/30 04:31:31;;;;;;;12.40;11.10;;;5.20;99.90;;;;;;4967950;28;20905;-73
2023/01/30 04:33:57;;;;;;;14.13;11.98;;;5.20;99.90;;;;;;4960343;28;20452;-73
2023/01/30 04:36:24;;;;;;;12.82;11.50;;;5.30;99.90;;;;;;4968900;28;20443;-73
2023/01/30 04:38:52;;;;;;;12.68;11.23;;;5.30;99.90;;;;;;4968443;28;20862;-73
2023/01/30 04:41:18;;;;;;;13.45;12.07;;;5.40;99.90;;;;;;4969656;28;20459;-72
2023/01/30 04:43:46;;;;;;;13.80;12.40;;;5.30;99.90;;;;;;4968332;28;20929;-72
2023/01/30 04:46:15;;;;;;;14.60;13.10;;;5.30;99.90;;;;;;4975710;28;20521;-73
2023/01/30 04:48:42;;;;;;;14.43;12.40;;;5.30;99.90;;;;;;4973494;28;20428;-72
2023/01/30 04:51:09;;;;;;;13.50;12.10;;;5.30;99.90;;;;;;4969084;28;20514;-74
2023/01/30 04:53:35;;;;;;;14.07;12.57;;;5.30;99.90;;;;;;4969509;28;20440;-73
2023/01/30 04:56:02;;;;;;;15.23;12.45;;;5.30;99.90;;;;;;4980647;28;20432;-74
2023/01/30 04:58:29;;;;;;;14.43;12.93;;;5.30;99.90;;;;;;4982172;28;20467;-72
2023/01/30 05:01:12;;;;;;;14.07;12.27;;;5.30;99.90;;;;;;4979227;28;20432;-74
2023/01/30 05:03:39;;;;;;;15.02;12.75;;;5.30;99.90;;;;;;4995081;28;20435;-73
2023/01/30 05:06:06;;;;;;;14.70;13.20;;;5.30;99.90;;;;;;4983458;28;20424;-72
2023/01/30 05:08:33;;;;;;;14.57;13.10;;;5.30;99.90;;;;;;4979823;28;20783;-74
2023/01/30 05:10:59;;;;;;;15.85;14.25;;;5.30;99.90;;;;;;4975448;28;20436;-72
2023/01/30 05:13:26;;;;;;;15.70;14.10;;;5.30;99.90;;;;;;4968622;28;20506;-73
2023/01/30 05:15:53;;;;;;;16.65;14.73;;;5.20;99.90;;;;;;4967292;28;20739;-73
2023/01/30 05:18:21;;;;;;;18.02;14.80;;;5.20;99.90;;;;;;4968853;28;20443;-72
2023/01/30 05:20:48;;;;;;;17.38;15.20;;;5.10;99.90;;;;;;4969437;28;20444;-72
2023/01/30 05:23:14;;;;;;;19.42;16.15;;;5.10;99.90;;;;;;4966504;28;20444;-72
2023/01/30 05:25:41;;;;;;;16.92;15.07;;;5.00;99.90;;;;;;4968659;28;20439;-73
2023/01/30 05:28:08;;;;;;;17.98;15.43;;;5.00;99.90;;;;;;4956231;28;20967;-73
2023/01/30 05:30:35;;;;;;;18.23;16.20;;;5.00;99.90;;;;;;4967004;28;20424;-71
2023/01/30 05:33:02;;;;;;;19.17;16.77;;;5.00;99.90;;;;;;4969066;28;20459;-72
2023/01/30 05:35:30;;;;;;;18.23;16.23;;;4.90;99.90;;;;;;4968630;28;20499;-73
2023/01/30 05:37:56;;;;;;;18.43;16.43;;;4.90;99.90;;;;;;4966806;28;20517;-73
2023/01/30 05:40:23;;;;;;;18.52;15.52;;;4.90;99.90;;;;;;4967171;28;20436;-73
2023/01/30 05:42:50;;;;;;;20.27;16.83;;;4.90;99.90;;;;;;4967025;28;20432;-73
2023/01/30 05:45:16;;;;;;;18.52;16.00;;;4.90;99.90;;;;;;4967378;28;20439;-73
2023/01/30 05:47:43;;;;;;;18.17;16.25;;;4.90;99.90;;;;;;4978942;28;20424;-73
2023/01/30 05:50:11;;;;;;;19.05;15.90;;;4.90;99.90;;;;;;4967722;28;20443;-71
2023/01/30 05:52:39;;;;;;;17.85;15.95;;;4.90;99.90;;;;;;4966254;28;20803;-72
2023/01/30 05:55:07;;;;;;;17.70;15.45;;;4.80;99.90;;;;;;4972164;28;20447;-72
2023/01/30 05:57:33;;;;;;;17.45;14.73;;;4.80;99.90;;;;;;4980196;28;20512;-71
2023/01/30 06:00:00;;;;;;;15.98;14.20;;;4.80;99.90;;;;;;4982863;28;20458;-72
2023/01/30 06:02:27;;;;;;;16.13;14.43;;;4.80;99.90;;;;;;4983495;28;20858;-72
2023/01/30 06:04:54;;;;;;;15.88;14.15;;;4.80;99.90;;;;;;4974064;28;20434;-71
2023/01/30 06:07:20;;;;;;;16.38;14.68;;;4.80;99.90;;;;;;4964020;28;20437;-74
2023/01/30 06:09:49;;;;;;;14.27;12.70;;;4.80;99.90;;;;;;4971837;28;20424;-72
2023/01/30 06:12:15;;;;;;;15.52;13.90;;;4.80;99.90;;;;;;4970616;28;20450;-72
2023/01/30 06:14:42;;;;;;;14.10;12.15;;;4.80;99.90;;;;;;4971483;28;20423;-72
2023/01/30 06:17:09;;;;;;;15.77;13.20;;;4.80;99.90;;;;;;4969241;28;20467;-77
2023/01/30 06:19:36;;;;;;;13.00;11.70;;;4.80;99.90;;;;;;4972350;28;20451;-73
2023/01/30 06:22:03;;;;;;;13.20;11.80;;;4.80;99.90;;;;;;4966873;28;20464;-72
2023/01/30 06:24:30;;;;;;;13.13;11.77;;;4.80;99.90;;;;;;4971760;28;20427;-73
2023/01/30 06:27:01;;;;;;;12.23;10.98;;;4.80;99.90;;;;;;4983109;28;20448;-73
2023/01/30 06:29:28;;;;;;;13.20;11.80;;;4.80;99.90;;;;;;4969545;28;20435;-74
2023/01/30 06:31:55;;;;;;;12.50;11.20;;;4.80;99.90;;;;;;4969061;28;20454;-74
2023/01/30 06:34:21;;;;;;;12.18;10.88;;;4.80;99.90;;;;;;4971629;28;20438;-75
2023/01/30 06:36:48;;;;;;;12.45;11.20;;;4.90;99.90;;;;;;4975214;28;20439;-72
2023/01/30 06:39:15;;;;;;;12.45;11.23;;;4.90;99.90;;;;;;4986744;28;20514;-73
2023/01/30 06:41:42;;;;;;;12.10;10.90;;;4.90;99.90;;;;;;4984647;28;20438;-73
2023/01/30 06:44:10;;;;;;;12.18;10.95;;;4.90;99.90;;;;;;4977715;28;20436;-74
2023/01/30 06:46:37;;;;;;;12.13;10.88;;;4.90;99.90;;;;;;4970961;28;20446;-72
2023/01/30 06:49:04;;;;;;;11.35;10.25;;;4.90;99.90;;;;;;4974067;28;20424;-73
2023/01/30 06:51:31;;;;;;;10.98;9.88;;;4.90;99.90;;;;;;4967167;28;20436;-74
2023/01/30 06:53:58;;;;;;;11.02;9.90;;;4.90;99.90;;;;;;4977143;28;20445;-74
2023/01/30 06:56:24;;;;;;;11.00;9.90;;;4.90;99.90;;;;;;4985083;28;20450;-72
2023/01/30 06:58:51;;;;;;;12.18;10.45;;;4.90;99.90;;;;;;4975888;28;20445;-72
2023/01/30 07:01:20;;;;;;;11.32;10.23;;;4.90;99.90;;;;;;4974790;28;20449;-74
2023/01/30 07:03:47;;;;;;;12.15;10.48;;;4.90;99.90;;;;;;4969429;28;20486;-72
2023/01/30 07:06:14;;;;;;;11.27;10.13;;;5.00;99.90;;;;;;4967134;28;20958;-72
2023/01/30 07:08:41;;;;;;;12.07;10.88;;;5.00;99.90;;;;;;4965740;28;20439;-72
2023/01/30 07:11:07;;;;;;;12.20;10.90;;;5.00;99.90;;;;;;4970101;28;20428;-72
2023/01/30 07:13:34;;;;;;;11.73;10.63;;;5.00;99.90;;;;;;4962144;28;20453;-71
2023/01/30 07:16:01;;;;;;;13.13;11.80;;;5.10;99.90;;;;;;4979082;28;20446;-72
2023/01/30 07:18:29;;;;;;;13.02;11.80;;;5.10;99.90;;;;;;4981598;28;20440;-72
2023/01/30 07:20:56;;;;;;;12.98;11.15;;;5.10;99.90;;;;;;4977877;28;20515;-73
2023/01/30 07:23:23;;;;;;;13.35;11.70;;;5.10;99.90;;;;;;4982890;28;20519;-72
2023/01/30 07:25:50;;;;;;;12.73;11.43;;;5.20;99.90;;;;;;4979282;28;20451;-74
2023/01/30 07:28:17;;;;;;;15.23;12.27;;;5.20;99.90;;;;;;4985848;28;20424;-71
2023/01/30 07:30:44;;;;;;;13.15;11.75;;;5.20;99.90;;;;;;4984179;28;20428;-73
2023/01/30 07:33:11;;;;;;;13.13;11.82;;;5.20;99.90;;;;;;4983653;28;20485;-74
2023/01/30 07:35:39;;;;;;;13.18;11.98;;;5.20;99.90;;;;;;4974052;28;20436;-72
2023/01/30 07:38:06;;;;;;;13.63;12.20;;;5.20;99.90;;;;;;4969432;28;20490;-74
2023/01/30 07:40:33;;;;;;;13.32;12.02;;;5.20;99.90;;;;;;4966326;28;20440;-73
2023/01/30 07:43:02;;;;;;;13.47;12.17;;;5.30;99.90;;;;;;4966653;28;20957;-75
2023/01/30 07:45:31;;;;;;;14.20;12.70;;;5.30;99.90;;;;;;4960225;28;20451;-72
2023/01/30 07:47:58;;;;;;;14.15;12.75;;;5.30;99.90;;;;;;4968015;28;20482;-74
2023/01/30 07:50:25;;;;;;;14.30;12.77;;;5.30;99.90;;;;;;4967964;28;20446;-74
2023/01/30 07:52:54;;;;;;;14.10;12.60;;;5.30;99.90;;;;;;4967789;28;20443;-74
2023/01/30 07:55:20;;;;;;;14.05;12.65;;;5.30;99.90;;;;;;4966981;28;20432;-72
2023/01/30 07:57:47;;;;;;;13.33;11.93;;;5.40;99.90;;;;;;4967689;28;20517;-72
2023/01/30 08:00:15;;;;;;;13.90;12.50;;;5.40;99.90;;;;;;4960900;28;20973;-72
2023/01/30 08:02:42;;;;;;;16.45;13.50;;;5.40;99.90;;;;;;4966960;28;20440;-72
2023/01/30 08:05:10;;;;;;;14.85;13.25;;;5.40;99.90;;;;;;4967734;28;20459;-72
2023/01/30 08:07:37;;;;;;;14.60;13.10;;;5.50;99.90;;;;;;4973719;28;20438;-72
2023/01/30 08:10:06;;;;;;;14.68;13.13;;;5.50;99.90;;;;;;4976948;28;20443;-72
2023/01/30 08:12:33;;;;;;;17.20;14.25;;;5.50;99.90;;;;;;4973840;28;20431;-72
2023/01/30 08:14:59;;;;;;;13.77;12.40;;;5.60;99.90;;;;;;4972610;28;20432;-71
2023/01/30 08:17:26;;;;;;;14.00;12.60;;;5.60;99.90;;;;;;4976727;28;20451;-72
2023/01/30 08:19:53;;;;;;;13.68;12.48;;;5.60;99.90;;;;;;4974706;28;20439;-72
2023/01/30 08:22:20;;;;;;;14.90;13.30;;;5.70;99.90;;;;;;4967925;28;20439;-72
2023/01/30 08:24:47;;;;;;;13.95;12.68;;;5.70;99.90;;;;;;4966463;28;20502;-71
2023/01/30 08:27:15;;;;;;;14.40;12.82;;;5.70;99.90;;;;;;4969694;28;20438;-71
2023/01/30 08:29:42;;;;;;;14.02;12.30;;;5.80;99.90;;;;;;4967371;28;20444;-72
2023/01/30 08:32:09;;;;;;;15.10;13.60;;;5.80;99.90;;;;;;4963757;28;20435;-71
2023/01/30 08:34:35;;;;;;;14.20;12.70;;;5.90;99.90;;;;;;4967483;28;20447;-72
2023/01/30 08:37:02;;;;;;;15.20;13.40;;;5.90;99.90;;;;;;4966036;28;20511;-73
2023/01/30 08:39:29;;;;;;;14.98;12.65;;;6.00;99.90;;;;;;4962685;28;20439;-72
2023/01/30 08:41:56;;;;;;;13.02;11.70;;;6.10;99.90;;;;;;4970312;28;20454;-71
2023/01/30 08:44:24;;;;;;;12.90;11.60;;;6.20;99.90;;;;;;4967849;28;20428;-71
2023/01/30 08:46:51;;;;;;;14.23;12.40;;;6.30;99.90;;;;;;4970798;28;20502;-74
2023/01/30 08:49:19;;;;;;;14.00;11.43;;;6.20;99.90;;;;;;4976457;28;20480;-71
2023/01/30 08:51:45;;;;;;;14.00;11.82;;;6.20;99.90;;;;;;4975278;28;20469;-72
2023/01/30 08:54:12;;;;;;;13.80;12.30;;;6.20;99.90;;;;;;4965618;28;20480;-72
2023/01/30 08:56:40;;;;;;;13.23;11.43;;;6.30;99.90;;;;;;4967619;28;20508;-73
2023/01/30 08:59:07;;;;;;;12.88;11.65;;;6.50;99.90;;;;;;4967301;28;20460;-72
2023/01/30 09:01:36;;;;;;;13.37;11.03;;;6.50;99.90;;;;;;4957636;28;20461;-72
2023/01/30 09:04:03;;;;;;;11.98;10.77;;;6.60;99.90;;;;;;4960374;28;20536;-77
2023/01/30 09:06:30;;;;;;;11.83;10.73;;;6.80;99.90;;;;;;4962272;28;20529;-77
2023/01/30 09:08:58;;;;;;;10.13;9.10;;;6.90;99.90;;;;;;4966846;28;20444;-73
2023/01/30 09:11:25;;;;;;;9.43;8.60;;;7.10;99.90;;;;;;4966167;28;20431;-72
2023/01/30 09:13:51;;;;;;;9.32;8.38;;;7.30;99.90;;;;;;4965439;28;20443;-73
2023/01/30 09:16:18;;;;;;;8.32;7.53;;;7.30;99.90;;;;;;4960628;28;20441;-73
2023/01/30 09:18:46;;;;;;;9.57;7.30;;;7.40;99.90;;;;;;4967979;28;20428;-72
2023/01/30 09:21:13;;;;;;;11.38;7.93;;;7.40;99.90;;;;;;4961626;28;20435;-73
2023/01/30 09:23:40;;;;;;;8.88;6.60;;;7.50;99.90;;;;;;4962023;28;20486;-72
2023/01/30 09:26:07;;;;;;;11.45;6.90;;;7.60;99.90;;;;;;4965952;28;20446;-73
2023/01/30 09:28:35;;;;;;;11.23;6.43;;;7.70;99.90;;;;;;4968342;28;20463;-72
2023/01/30 09:31:02;;;;;;;8.05;5.22;;;7.80;99.90;;;;;;4964778;28;20436;-74
2023/01/30 09:33:29;;;;;;;8.13;5.07;;;7.80;99.90;;;;;;4966349;28;20451;-74
2023/01/30 09:35:57;;;;;;;7.97;4.68;;;7.90;99.90;;;;;;4961816;28;20436;-73
2023/01/30 09:38:24;;;;;;;6.50;4.00;;;7.90;99.90;;;;;;4968506;28;20443;-72
2023/01/30 09:41:08;;;;;;;7.43;3.80;;;8.00;99.30;;;;;;4971064;28;20439;-72
2023/01/30 09:43:50;;;;;;;6.90;3.78;;;8.00;96.80;;;;;;4978130;28;20439;-75
2023/01/30 09:46:31;;;;;;;8.20;3.80;;;8.00;97.10;;;;;;4979506;28;20443;-74
2023/01/30 09:49:05;;;;;;;7.75;3.47;;;8.10;96.80;;;;;;4982146;28;20446;-73
2023/01/30 09:51:55;;;;;;;7.97;3.63;;;8.30;96.10;;;;;;4979771;28;20470;-74
2023/01/30 09:54:24;;;;;;;8.68;3.47;;;8.40;95.20;;;;;;4979630;28;20429;-72
2023/01/30 09:56:56;;;;;;;6.43;3.20;;;8.40;94.20;;;;;;4977905;28;20446;-72
2023/01/30 09:59:29;;;;;;;7.30;3.33;;;8.30;93.60;;;;;;4970793;28;20423;-74
2023/01/30 10:02:01;;;;;;;8.88;3.30;;;8.40;94.20;;;;;;4964320;28;20442;-72
2023/01/30 10:04:33;;;;;;;8.10;3.60;;;8.50;94.40;;;;;;4965499;28;20531;-72
2023/01/30 10:07:15;;;;;;;8.75;2.80;;;8.60;92.40;;;;;;4965235;28;20626;-74
2023/01/30 10:09:51;;;;;;;7.70;2.90;;;8.70;92.00;;;;;;4959091;28;20464;-73
2023/01/30 10:12:33;;;;;;;6.60;3.10;;;8.80;91.50;;;;;;4961941;28;20478;-73
2023/01/30 10:15:18;;;;;;;6.07;2.80;;;8.90;90.50;;;;;;4963524;28;20490;-75
2023/01/30 10:17:57;;;;;;;7.68;2.92;;;9.00;89.60;;;;;;4956421;28;20464;-73
2023/01/30 10:20:38;;;;;;;8.52;3.90;;;9.20;88.30;;;;;;4960271;28;20439;-74
2023/01/30 10:23:22;;;;;;;10.50;3.30;;;9.30;87.70;;;;;;4965594;28;20649;-72
2023/01/30 10:25:53;;;;;;;8.75;3.70;;;9.40;86.20;;;;;;4962447;28;20813;-74
2023/01/30 10:28:25;;;;;;;8.35;3.00;;;9.60;86.10;;;;;;4967741;28;20605;-73
2023/01/30 10:31:04;;;;;;;7.35;3.33;;;9.60;86.30;;;;;;4964491;28;20463;-74
2023/01/30 10:33:34;;;;;;;6.60;4.10;;;9.60;84.20;;;;;;4959259;28;20516;-74
2023/01/30 10:36:06;;;;;;;7.47;3.50;;;9.30;85.60;;;;;;4966698;28;20868;-74
2023/01/30 10:38:42;;;;;;;6.05;3.15;;;9.20;89.20;;;;;;4967123;28;20470;-73
2023/01/30 10:41:17;;;;;;;7.63;3.40;;;9.10;86.50;;;;;;4965611;28;20478;-73
2023/01/30 10:43:47;;;;;;;7.45;3.50;;;9.10;86.30;;;;;;4966265;28;20419;-73
2023/01/30 10:46:27;;;;;;;8.98;3.80;;;9.00;86.70;;;;;;4941185;28;20436;-73
2023/01/30 10:48:58;;;;;;;7.28;3.53;;;9.00;86.50;;;;;;4965276;28;20515;-73
2023/01/30 10:51:38;;;;;;;6.90;3.40;;;8.90;88.60;;;;;;4967958;28;20575;-74
2023/01/30 10:54:13;;;;;;;8.45;3.50;;;9.00;88.20;;;;;;4965920;28;20444;-74
2023/01/30 10:56:46;;;;;;;8.02;3.67;;;9.20;86.10;;;;;;4970611;28;20967;-73
2023/01/30 10:59:23;;;;;;;7.28;3.22;;;9.20;84.80;;;;;;4961605;28;20763;-74
2023/01/30 11:01:59;;;;;;;10.35;3.72;;;9.10;84.70;;;;;;4969179;28;20484;-72
2023/01/30 11:04:31;;;;;;;6.60;3.50;;;8.90;83.70;;;;;;4978928;28;20793;-73
2023/01/30 11:07:00;;;;;;;7.15;2.90;;;8.70;86.60;;;;;;4969236;28;20525;-72
2023/01/30 11:09:40;;;;;;;6.93;3.00;;;8.40;84.80;;;;;;4972020;28;20518;-74
2023/01/30 11:12:10;;;;;;;9.15;3.40;;;8.30;85.50;;;;;;4969510;28;20439;-73
2023/01/30 11:14:57;;;;;;;9.57;3.60;;;8.30;86.30;;;;;;4974746;28;20817;-73
2023/01/30 11:17:30;;;;;;;9.10;3.80;;;8.30;88.40;;;;;;4967604;28;20557;-72
2023/01/30 11:20:01;;;;;;;7.90;3.60;;;8.30;89.80;;;;;;4968542;28;20500;-74
2023/01/30 11:22:33;;;;;;;9.13;3.33;;;8.20;90.40;;;;;;4968286;28;21452;-75
2023/01/30 11:25:07;;;;;;;7.18;3.60;;;8.10;89.60;;;;;;4969957;28;20447;-74
2023/01/30 11:27:35;;;;;;;7.15;2.50;;;8.10;88.60;;;;;;4969887;28;20471;-73
2023/01/30 11:30:11;;;;;;;9.90;2.97;;;8.00;87.10;;;;;;4969534;28;20428;-74
2023/01/30 11:32:38;;;;;;;9.32;3.03;;;8.00;87.40;;;;;;4967316;28;20527;-74
2023/01/30 11:35:24;;;;;;;9.70;2.90;;;8.00;87.00;;;;;;4965174;28;20455;-73
2023/01/30 11:37:52;;;;;;;6.65;2.80;;;7.90;87.90;;;;;;4968845;28;20497;-71
2023/01/30 11:40:30;;;;;;;11.95;3.55;;;7.90;90.60;;;;;;4968916;28;20435;-74
2023/01/30 11:43:04;;;;;;;9.60;3.60;;;7.80;90.40;;;;;;4962508;28;20528;-72
2023/01/30 11:45:37;;;;;;;8.00;3.05;;;7.80;90.40;;;;;;4968294;28;20505;-73
2023/01/30 11:48:11;;;;;;;12.77;4.00;;;7.80;91.20;;;;;;4967225;28;20432;-73
2023/01/30 11:50:41;;;;;;;8.52;3.97;;;7.80;90.20;;;;;;4962619;28;20994;-71
2023/01/30 11:53:25;;;;;;;8.95;4.10;;;7.90;91.30;;;;;;4966846;28;20444;-76
2023/01/30 11:55:58;;;;;;;7.03;3.25;;;8.10;91.30;;;;;;4966004;28;20443;-73
2023/01/30 11:58:30;;;;;;;8.40;3.30;;;8.20;87.10;;;;;;4966952;28;20511;-71
2023/01/30 12:00:59;;;;;;;7.45;3.20;;;8.30;87.20;;;;;;4966621;28;20814;-73
2023/01/30 12:03:28;;;;;;;8.98;3.25;;;8.30;86.00;;;;;;4963709;28;20538;-72
2023/01/30 12:05:57;;;;;;;8.98;3.60;;;8.30;85.70;;;;;;4961113;28;20718;-73
2023/01/30 12:08:27;;;;;;;10.27;3.55;;;8.40;87.50;;;;;;4969328;28;20440;-73
2023/01/30 12:10:59;;;;;;;8.57;3.70;;;8.40;85.70;;;;;;4968865;28;20431;-72
2023/01/30 12:13:32;;;;;;;7.68;2.70;;;8.40;85.80;;;;;;4969839;28;20471;-72
2023/01/30 12:16:17;;;;;;;8.73;2.83;;;8.30;86.40;;;;;;4960516;28;20906;-73
2023/01/30 12:18:51;;;;;;;8.93;3.00;;;8.30;85.90;;;;;;4966356;28;20496;-73
2023/01/30 12:21:34;;;;;;;10.00;3.80;;;8.30;86.00;;;;;;4968796;28;20513;-72
2023/01/30 12:24:11;;;;;;;7.20;3.10;;;8.20;85.30;;;;;;4967014;28;20802;-74
2023/01/30 12:26:45;;;;;;;9.00;3.30;;;8.20;85.90;;;;;;4966005;28;20602;-72
2023/01/30 12:29:23;;;;;;;8.17;3.00;;;8.20;85.00;;;;;;4968823;28;20481;-73
2023/01/30 12:32:02;;;;;;;9.57;2.90;;;8.10;83.40;;;;;;4963910;28;21181;-73
2023/01/30 12:34:29;;;;;;;6.40;3.30;;;8.00;83.60;;;;;;4962212;28;20442;-73
2023/01/30 12:37:07;;;;;;;9.20;2.80;;;7.90;85.20;;;;;;4962615;28;20456;-73
2023/01/30 12:39:43;;;;;;;8.95;2.97;;;7.90;88.00;;;;;;4963399;28;20459;-73
2023/01/30 12:42:28;;;;;;;7.93;2.83;;;7.80;85.30;;;;;;4965102;28;20550;-73
2023/01/30 12:45:06;;;;;;;6.30;2.70;;;7.70;84.40;;;;;;4968132;28;20935;-72
2023/01/30 12:47:46;;;;;;;8.07;2.92;;;7.80;84.80;;;;;;4965330;28;20502;-74
2023/01/30 12:50:24;;;;;;;6.30;2.83;;;7.80;84.50;;;;;;4959195;28;20526;-74
2023/01/30 12:53:15;;;;;;;10.70;3.40;;;7.90;85.20;;;;;;4966986;28;20488;-74
2023/01/30 12:55:51;;;;;;;9.40;3.10;;;7.90;84.90;;;;;;4961849;28;20466;-77
2023/01/30 12:58:29;;;;;;;6.75;2.90;;;7.90;88.40;;;;;;4960452;28;20974;-78
2023/01/30 13:01:13;;;;;;;8.60;3.10;;;7.70;89.80;;;;;;4968583;28;20477;-76
2023/01/30 13:03:45;;;;;;;7.70;3.13;;;8.00;90.80;;;;;;4972206;28;20492;-76